createdAt,value
2022-12-19T00:00:02.031Z,25.40
2022-12-19T00:01:07.135Z,24.33
2022-12-19T00:02:09.762Z,22.48
2022-12-19T00:03:13.427Z,23.15
2022-12-19T00:04:19.835Z,21.92
2022-12-19T00:05:29.952Z,23.85
2022-12-19T00:06:43.594Z,24.60
2022-12-19T00:07:50.006Z,22.65
2022-12-19T00:08:53.971Z,23.52
2022-12-19T00:09:57.391Z,23.27
2022-12-19T00:11:02.106Z,23.00
2022-12-19T00:12:17.435Z,23.35
2022-12-19T00:13:21.677Z,22.23
2022-12-19T00:14:25.211Z,24.52
2022-12-19T00:15:28.023Z,22.35
2022-12-19T00:16:31.865Z,22.38
2022-12-19T00:17:47.958Z,21.67
2022-12-19T00:18:58.141Z,22.27
2022-12-19T00:20:00.664Z,22.67
2022-12-19T00:21:05.734Z,22.25
2022-12-19T00:22:11.163Z,22.08
2022-12-19T00:23:20.953Z,23.75
2022-12-19T00:24:23.418Z,22.60
2022-12-19T00:25:26.923Z,23.90
2022-12-19T00:26:32.711Z,23.35
2022-12-19T00:27:42.943Z,23.45
2022-12-19T00:28:54.944Z,23.05
2022-12-19T00:29:59.539Z,21.85
2022-12-19T00:31:03.083Z,23.30
2022-12-19T00:32:05.839Z,21.63
2022-12-19T00:33:15.951Z,22.38
2022-12-19T00:34:24.973Z,22.85
2022-12-19T00:35:28.462Z,23.45
2022-12-19T00:36:31.755Z,22.67
2022-12-19T00:37:35.182Z,25.05
2022-12-19T00:38:40.151Z,22.13
2022-12-19T00:39:49.957Z,24.63
2022-12-19T00:40:52.495Z,22.00
2022-12-19T00:41:57.243Z,24.17
2022-12-19T00:42:59.728Z,21.73
2022-12-19T00:44:10.996Z,23.27
2022-12-19T00:45:13.517Z,22.90
2022-12-19T00:46:17.892Z,23.08
2022-12-19T00:47:20.452Z,21.67
2022-12-19T00:48:23.974Z,23.20
2022-12-19T00:49:32.949Z,24.60
2022-12-19T00:50:37.464Z,22.70
2022-12-19T00:51:46.972Z,23.42
2022-12-19T00:52:50.413Z,23.77
2022-12-19T00:53:54.450Z,25.00
2022-12-19T00:54:57.903Z,24.23
2022-12-19T00:56:02.465Z,24.55
2022-12-19T00:57:13.993Z,23.83
2022-12-19T00:58:16.508Z,24.63
2022-12-19T00:59:26.536Z,23.70
2022-12-19T01:00:30.357Z,23.83
2022-12-19T01:01:41.300Z,23.52
2022-12-19T01:02:45.345Z,23.65
2022-12-19T01:04:26.111Z,25.30
2022-12-19T01:05:19.010Z,21.02
2022-12-19T01:06:21.540Z,23.38
2022-12-19T01:07:25.587Z,23.55
2022-12-19T01:08:28.276Z,24.50
2022-12-19T01:09:33.336Z,22.60
2022-12-19T01:10:41.964Z,22.63
2022-12-19T01:12:03.206Z,19.88
2022-12-19T01:13:07.997Z,21.92
2022-12-19T01:14:10.850Z,23.85
2022-12-19T01:15:19.941Z,22.58
2022-12-19T01:16:23.397Z,21.52
2022-12-19T01:17:32.968Z,23.00
2022-12-19T01:18:50.082Z,23.90
2022-12-19T01:19:52.579Z,22.65
2022-12-19T01:20:56.030Z,23.48
2022-12-19T01:21:58.760Z,22.25
2022-12-19T01:23:08.999Z,22.73
2022-12-19T01:24:11.653Z,22.50
2022-12-19T01:25:15.859Z,22.77
2022-12-19T01:26:18.363Z,23.60
2022-12-19T01:27:21.819Z,23.52
2022-12-19T01:28:32.938Z,20.35
2022-12-19T01:29:51.841Z,23.23
2022-12-19T01:30:57.494Z,21.70
2022-12-19T01:32:00.189Z,22.08
2022-12-19T01:33:03.812Z,22.40
2022-12-19T01:34:12.965Z,23.30
2022-12-19T01:35:21.364Z,24.23
2022-12-19T01:36:24.724Z,22.52
2022-12-19T01:37:28.150Z,23.05
2022-12-19T01:38:30.603Z,22.95
2022-12-19T01:39:40.955Z,24.38
2022-12-19T01:40:50.151Z,22.20
2022-12-19T01:41:53.579Z,21.70
2022-12-19T01:43:02.949Z,21.83
2022-12-19T01:44:09.131Z,22.10
2022-12-19T01:45:45.117Z,23.20
2022-12-19T01:46:50.620Z,21.70
2022-12-19T01:47:54.494Z,21.02
2022-12-19T01:48:58.486Z,22.02
2022-12-19T01:50:08.955Z,21.73
2022-12-19T01:51:22.148Z,22.45
2022-12-19T01:52:24.840Z,21.40
2022-12-19T01:53:30.138Z,21.27
2022-12-19T01:54:34.031Z,22.15
2022-12-19T01:55:38.501Z,22.70
2022-12-19T01:56:50.154Z,22.05
2022-12-19T01:57:54.128Z,22.50
2022-12-19T01:59:05.114Z,23.10
2022-12-19T02:00:12.656Z,22.30
2022-12-19T02:01:16.121Z,22.90
2022-12-19T02:02:28.070Z,24.92
2022-12-19T02:03:32.882Z,22.65
2022-12-19T02:04:36.963Z,21.20
2022-12-19T02:05:39.786Z,24.48
2022-12-19T02:06:49.930Z,23.13
2022-12-19T02:07:59.908Z,23.38
2022-12-19T02:09:03.550Z,22.80
2022-12-19T02:10:06.357Z,21.95
2022-12-19T02:11:09.796Z,24.10
2022-12-19T02:12:21.077Z,22.80
2022-12-19T02:13:25.672Z,24.00
2022-12-19T02:14:28.351Z,21.83
2022-12-19T02:15:35.391Z,23.48
2022-12-19T02:16:42.279Z,23.13
2022-12-19T02:18:03.918Z,22.65
2022-12-19T02:19:12.853Z,20.92
2022-12-19T02:20:31.487Z,20.92
2022-12-19T02:21:40.027Z,22.27
2022-12-19T02:22:51.824Z,22.23
2022-12-19T02:24:18.919Z,21.58
2022-12-19T02:25:41.922Z,23.15
2022-12-19T02:26:58.717Z,21.45
2022-12-19T02:28:20.462Z,21.48
2022-12-19T02:29:37.855Z,21.88
2022-12-19T02:30:54.917Z,21.92
2022-12-19T02:31:58.997Z,22.20
2022-12-19T02:33:05.234Z,21.45
2022-12-19T02:34:17.932Z,22.65
2022-12-19T02:35:28.075Z,23.27
2022-12-19T02:36:36.821Z,20.92
2022-12-19T02:37:46.653Z,22.13
2022-12-19T02:38:51.370Z,24.35
2022-12-19T02:40:03.931Z,24.15
2022-12-19T02:41:08.390Z,23.58
2022-12-19T02:42:13.340Z,23.27
2022-12-19T02:43:18.929Z,24.13
2022-12-19T02:44:30.961Z,24.52
2022-12-19T02:45:35.598Z,23.45
2022-12-19T02:46:46.929Z,23.90
2022-12-19T02:47:55.955Z,24.08
2022-12-19T02:49:00.095Z,23.25
2022-12-19T02:50:03.214Z,23.27
2022-12-19T02:51:12.983Z,22.52
2022-12-19T02:52:30.321Z,22.58
2022-12-19T02:53:34.238Z,22.95
2022-12-19T02:54:36.864Z,21.35
2022-12-19T02:55:45.846Z,24.75
2022-12-19T02:56:57.967Z,23.60
2022-12-19T02:58:17.936Z,23.55
2022-12-19T02:59:40.090Z,22.40
2022-12-19T03:00:47.819Z,23.45
2022-12-19T03:02:02.185Z,23.23
2022-12-19T03:03:17.993Z,23.13
2022-12-19T03:04:27.500Z,21.92
2022-12-19T03:05:33.551Z,23.75
2022-12-19T03:06:40.198Z,21.42
2022-12-19T03:07:50.983Z,23.52
2022-12-19T03:09:03.952Z,22.63
2022-12-19T03:10:10.667Z,20.60
2022-12-19T03:11:15.219Z,24.45
2022-12-19T03:12:20.769Z,24.50
2022-12-19T03:13:32.949Z,23.83
2022-12-19T03:14:36.706Z,24.33
2022-12-19T03:15:41.525Z,23.85
2022-12-19T03:16:44.286Z,24.83
2022-12-19T03:17:56.083Z,24.65
2022-12-19T03:19:12.933Z,24.20
2022-12-19T03:20:21.347Z,22.98
2022-12-19T03:21:26.323Z,23.98
2022-12-19T03:22:29.849Z,23.88
2022-12-19T03:23:32.547Z,24.40
2022-12-19T03:24:42.981Z,23.42
2022-12-19T03:25:48.219Z,24.20
2022-12-19T03:26:55.203Z,23.88
2022-12-19T03:27:58.776Z,24.02
2022-12-19T03:29:12.024Z,24.70
2022-12-19T03:30:14.910Z,23.23
2022-12-19T03:31:19.743Z,23.73
2022-12-19T03:32:23.305Z,23.65
2022-12-19T03:33:29.464Z,23.98
2022-12-19T03:34:39.998Z,23.20
2022-12-19T03:35:44.764Z,24.27
2022-12-19T03:36:49.794Z,23.73
2022-12-19T03:37:54.292Z,24.40
2022-12-19T03:38:57.640Z,23.25
2022-12-19T03:40:08.997Z,23.35
2022-12-19T03:41:12.712Z,21.63
2022-12-19T03:42:36.127Z,23.55
2022-12-19T03:43:39.783Z,22.65
2022-12-19T03:44:50.990Z,22.15
2022-12-19T03:45:57.434Z,21.73
2022-12-19T03:47:04.621Z,24.20
2022-12-19T03:48:08.848Z,22.15
2022-12-19T03:49:13.864Z,24.10
2022-12-19T03:50:22.958Z,22.75
2022-12-19T03:51:31.707Z,22.42
2022-12-19T03:52:36.942Z,22.55
2022-12-19T03:53:47.694Z,21.70
2022-12-19T03:54:59.032Z,22.70
2022-12-19T03:56:07.873Z,24.33
2022-12-19T03:57:12.458Z,21.70
2022-12-19T03:58:17.915Z,23.48
2022-12-19T03:59:23.827Z,21.88
2022-12-19T04:00:34.023Z,21.52
2022-12-19T04:01:38.492Z,22.80
2022-12-19T04:02:42.670Z,23.17
2022-12-19T04:03:46.587Z,21.42
2022-12-19T04:04:57.078Z,22.50
2022-12-19T04:06:07.974Z,21.83
2022-12-19T04:07:12.533Z,21.77
2022-12-19T04:08:15.407Z,21.02
2022-12-19T04:09:22.573Z,24.30
2022-12-19T04:10:32.966Z,22.48
2022-12-19T04:11:40.011Z,21.52
2022-12-19T04:12:43.872Z,20.90
2022-12-19T04:13:51.669Z,22.73
2022-12-19T04:14:54.193Z,23.02
2022-12-19T04:16:08.031Z,21.13
2022-12-19T04:17:14.296Z,21.67
2022-12-19T04:18:26.151Z,21.55
2022-12-19T04:19:42.325Z,21.83
2022-12-19T04:20:52.396Z,20.95
2022-12-19T04:22:07.967Z,22.40
2022-12-19T04:23:19.983Z,20.83
2022-12-19T04:24:25.038Z,21.52
2022-12-19T04:25:31.090Z,21.20
2022-12-19T04:26:35.028Z,19.05
2022-12-19T04:27:40.094Z,20.98
2022-12-19T04:28:50.975Z,20.85
2022-12-19T04:29:56.706Z,21.10
2022-12-19T04:31:00.077Z,21.00
2022-12-19T04:32:03.948Z,20.42
2022-12-19T04:33:13.988Z,22.50
2022-12-19T04:34:19.381Z,21.42
2022-12-19T04:35:21.902Z,20.00
2022-12-19T04:36:27.441Z,20.98
2022-12-19T04:37:30.082Z,20.48
2022-12-19T04:38:40.001Z,21.40
2022-12-19T04:39:42.563Z,21.35
2022-12-19T04:40:46.056Z,20.92
2022-12-19T04:41:48.547Z,19.08
2022-12-19T04:42:51.984Z,20.10
2022-12-19T04:44:00.994Z,20.92
2022-12-19T04:45:05.969Z,19.95
2022-12-19T04:46:08.693Z,18.58
2022-12-19T04:47:12.164Z,20.60
2022-12-19T04:48:14.793Z,20.17
2022-12-19T04:49:25.015Z,19.55
2022-12-19T04:50:27.545Z,19.83
2022-12-19T04:51:32.366Z,20.20
2022-12-19T04:52:34.892Z,18.77
2022-12-19T04:53:38.312Z,20.38
2022-12-19T04:54:47.955Z,19.60
2022-12-19T04:55:57.960Z,18.88
2022-12-19T04:57:00.436Z,20.17
2022-12-19T04:58:05.407Z,20.85
2022-12-19T04:59:07.926Z,19.38
2022-12-19T05:00:18.213Z,18.95
2022-12-19T05:01:20.827Z,18.55
2022-12-19T05:02:24.817Z,20.58
2022-12-19T05:03:27.483Z,19.73
2022-12-19T05:04:30.926Z,20.58
2022-12-19T05:05:39.991Z,20.05
2022-12-19T05:06:47.109Z,17.52
2022-12-19T05:07:49.593Z,18.55
2022-12-19T05:08:53.022Z,19.27
2022-12-19T05:09:55.525Z,17.63
2022-12-19T05:11:06.977Z,18.40
2022-12-19T05:12:16.975Z,17.65
2022-12-19T05:13:20.458Z,17.40
2022-12-19T05:14:23.952Z,19.52
2022-12-19T05:15:26.491Z,20.23
2022-12-19T05:16:30.276Z,18.55
2022-12-19T05:17:39.022Z,20.00
2022-12-19T05:18:49.174Z,19.25
2022-12-19T05:19:51.659Z,18.80
2022-12-19T05:20:55.279Z,18.27
2022-12-19T05:21:59.083Z,17.77
2022-12-19T05:23:15.311Z,17.05
2022-12-19T05:24:20.483Z,18.08
2022-12-19T05:25:23.009Z,19.10
2022-12-19T05:26:26.777Z,16.88
2022-12-19T05:27:29.275Z,18.08
2022-12-19T05:28:39.978Z,19.25
2022-12-19T05:29:48.943Z,17.08
2022-12-19T05:30:52.763Z,17.60
2022-12-19T05:31:55.295Z,17.38
2022-12-19T05:33:02.396Z,18.67
2022-12-19T05:34:10.997Z,15.52
2022-12-19T05:35:14.442Z,19.40
2022-12-19T05:36:17.771Z,16.50
2022-12-19T05:37:22.499Z,17.55
2022-12-19T05:38:25.014Z,16.80
2022-12-19T05:39:35.020Z,18.52
2022-12-19T05:40:37.540Z,19.73
2022-12-19T05:41:41.484Z,16.42
2022-12-19T05:42:43.992Z,18.48
2022-12-19T05:43:48.580Z,18.98
2022-12-19T05:44:57.983Z,18.58
2022-12-19T05:46:01.426Z,18.20
2022-12-19T05:47:03.939Z,18.70
2022-12-19T05:48:08.188Z,17.88
2022-12-19T05:49:12.136Z,17.52
2022-12-19T05:50:23.025Z,19.08
2022-12-19T05:51:26.639Z,18.73
2022-12-19T05:52:30.570Z,19.60
2022-12-19T05:53:34.136Z,18.65
2022-12-19T05:54:37.198Z,18.65
2022-12-19T05:55:46.961Z,19.58
2022-12-19T05:56:55.975Z,18.95
2022-12-19T05:57:59.402Z,19.67
2022-12-19T05:59:01.991Z,18.35
2022-12-19T06:00:05.795Z,20.05
2022-12-19T06:01:14.995Z,20.27
2022-12-19T06:02:25.399Z,16.65
2022-12-19T06:03:28.026Z,18.08
2022-12-19T06:04:31.517Z,17.75
2022-12-19T06:05:37.384Z,20.27
2022-12-19T06:06:40.919Z,21.75
2022-12-19T06:07:50.953Z,16.48
2022-12-19T06:08:55.273Z,19.00
2022-12-19T06:09:57.775Z,20.90
2022-12-19T06:11:01.373Z,15.75
2022-12-19T06:12:10.993Z,21.02
2022-12-19T06:13:13.459Z,18.92
2022-12-19T06:14:16.919Z,22.25
2022-12-19T06:15:19.422Z,21.02
2022-12-19T06:16:23.639Z,19.90
2022-12-19T06:17:32.981Z,22.77
2022-12-19T06:18:50.040Z,22.02
2022-12-19T06:19:59.190Z,21.77
2022-12-19T06:21:03.415Z,22.67
2022-12-19T06:22:06.018Z,18.98
2022-12-19T06:23:10.805Z,21.50
2022-12-19T06:24:19.968Z,20.45
2022-12-19T06:25:23.419Z,18.80
2022-12-19T06:26:25.901Z,20.35
2022-12-19T06:27:29.429Z,20.45
2022-12-19T06:28:32.108Z,20.65
2022-12-19T06:29:41.952Z,21.73
2022-12-19T06:30:44.499Z,20.45
2022-12-19T06:31:48.084Z,20.63
2022-12-19T06:32:50.779Z,20.75
2022-12-19T06:34:00.958Z,19.42
2022-12-19T06:35:04.590Z,20.58
2022-12-19T06:36:15.983Z,21.88
2022-12-19T06:37:18.526Z,20.02
2022-12-19T06:38:23.291Z,21.02
2022-12-19T06:39:25.856Z,21.42
2022-12-19T06:40:46.103Z,19.15
2022-12-19T06:42:13.976Z,18.65
2022-12-19T06:43:17.411Z,20.80
2022-12-19T06:44:19.912Z,21.45
2022-12-19T06:45:23.382Z,21.95
2022-12-19T06:46:25.968Z,21.67
2022-12-19T06:47:35.955Z,20.48
2022-12-19T06:48:38.475Z,22.00
2022-12-19T06:49:41.898Z,22.52
2022-12-19T06:50:44.395Z,20.63
2022-12-19T06:51:55.066Z,21.55
2022-12-19T06:52:59.676Z,19.98
2022-12-19T06:54:04.803Z,17.42
2022-12-19T06:55:07.835Z,17.98
2022-12-19T06:56:11.324Z,20.70
2022-12-19T06:57:21.007Z,19.20
2022-12-19T06:58:24.886Z,21.52
2022-12-19T06:59:28.340Z,19.42
2022-12-19T07:00:30.911Z,20.30
2022-12-19T07:01:41.272Z,20.35
2022-12-19T07:02:53.042Z,20.20
2022-12-19T07:04:02.971Z,20.58
2022-12-19T07:05:08.571Z,20.88
2022-12-19T07:06:11.075Z,18.67
2022-12-19T07:07:14.570Z,20.90
2022-12-19T07:08:17.141Z,20.13
2022-12-19T07:09:34.967Z,19.48
2022-12-19T07:10:37.688Z,19.75
2022-12-19T07:11:41.550Z,21.30
2022-12-19T07:12:51.088Z,20.40
2022-12-19T07:14:00.999Z,19.92
2022-12-19T07:15:04.838Z,19.05
2022-12-19T07:16:08.422Z,20.02
2022-12-19T07:17:12.847Z,21.38
2022-12-19T07:18:36.104Z,19.73
2022-12-19T07:19:45.941Z,18.48
2022-12-19T07:20:48.474Z,20.77
2022-12-19T07:21:52.019Z,19.17
2022-12-19T07:22:54.948Z,18.80
2022-12-19T07:24:04.971Z,20.50
2022-12-19T07:25:10.225Z,17.13
2022-12-19T07:26:12.833Z,20.73
2022-12-19T07:27:22.974Z,20.17
2022-12-19T07:28:26.688Z,20.02
2022-12-19T07:29:36.981Z,20.45
2022-12-19T07:30:39.471Z,20.30
2022-12-19T07:31:50.082Z,20.77
2022-12-19T07:32:53.648Z,19.33
2022-12-19T07:33:56.544Z,18.60
2022-12-19T07:34:59.980Z,19.52
2022-12-19T07:36:03.591Z,18.45
2022-12-19T07:37:13.146Z,18.48
2022-12-19T07:38:16.608Z,18.27
2022-12-19T07:39:19.561Z,18.58
2022-12-19T07:40:24.296Z,19.42
2022-12-19T07:41:26.817Z,17.83
2022-12-19T07:42:36.973Z,19.38
2022-12-19T07:43:40.409Z,16.67
2022-12-19T07:44:49.946Z,18.17
2022-12-19T07:45:56.218Z,18.48
2022-12-19T07:46:58.757Z,19.45
2022-12-19T07:48:02.557Z,17.13
2022-12-19T07:49:11.963Z,18.02
2022-12-19T07:50:15.779Z,17.85
2022-12-19T07:51:25.080Z,17.73
2022-12-19T07:52:28.509Z,17.52
2022-12-19T07:53:31.340Z,18.67
2022-12-19T07:54:35.141Z,17.38
2022-12-19T07:55:47.117Z,18.30
2022-12-19T07:56:50.476Z,15.88
2022-12-19T07:58:01.968Z,16.65
2022-12-19T07:59:05.419Z,17.80
2022-12-19T08:00:08.430Z,17.58
2022-12-19T08:01:12.746Z,18.33
2022-12-19T08:02:23.114Z,18.48
2022-12-19T08:03:32.975Z,16.60
2022-12-19T08:04:36.606Z,18.08
2022-12-19T08:05:39.384Z,16.88
2022-12-19T08:06:42.968Z,16.63
2022-12-19T08:07:52.378Z,17.33
2022-12-19T08:08:55.973Z,16.48
2022-12-19T08:10:07.993Z,16.77
2022-12-19T08:11:13.940Z,17.45
2022-12-19T08:12:17.737Z,16.88
2022-12-19T08:13:31.152Z,17.20
2022-12-19T08:14:39.066Z,17.48
2022-12-19T08:15:42.487Z,16.90
2022-12-19T08:17:18.804Z,19.00
2022-12-19T08:18:15.915Z,16.88
2022-12-19T08:19:32.992Z,16.95
2022-12-19T08:20:45.693Z,16.08
2022-12-19T08:21:49.145Z,16.45
2022-12-19T08:22:51.689Z,15.50
2022-12-19T08:23:55.288Z,18.35
2022-12-19T08:25:05.929Z,18.45
2022-12-19T08:26:16.965Z,17.80
2022-12-19T08:27:21.989Z,16.95
2022-12-19T08:28:25.777Z,15.57
2022-12-19T08:29:29.605Z,17.10
2022-12-19T08:30:40.022Z,16.60
2022-12-19T08:31:43.451Z,14.85
2022-12-19T08:32:46.962Z,16.85
2022-12-19T08:33:49.458Z,15.63
2022-12-19T08:34:52.926Z,16.27
2022-12-19T08:36:02.958Z,16.67
2022-12-19T08:37:06.391Z,16.48
2022-12-19T08:38:10.154Z,15.15
2022-12-19T08:39:19.960Z,15.50
2022-12-19T08:40:24.567Z,14.98
2022-12-19T08:41:34.967Z,15.55
2022-12-19T08:42:40.392Z,15.25
2022-12-19T08:43:43.059Z,14.65
2022-12-19T08:44:52.936Z,15.40
2022-12-19T08:45:56.528Z,16.00
2022-12-19T08:46:59.979Z,13.95
2022-12-19T08:48:03.405Z,17.08
2022-12-19T08:49:06.837Z,16.05
2022-12-19T08:50:16.917Z,16.52
2022-12-19T08:51:21.029Z,15.48
2022-12-19T08:52:24.479Z,14.85
2022-12-19T08:53:41.977Z,13.65
2022-12-19T08:54:46.127Z,16.05
2022-12-19T08:55:50.699Z,16.10
2022-12-19T08:56:54.047Z,16.75
2022-12-19T08:58:06.096Z,15.05
2022-12-19T08:59:09.505Z,14.38
2022-12-19T09:00:16.397Z,14.65
2022-12-19T09:01:24.074Z,15.63
2022-12-19T09:02:34.224Z,15.40
2022-12-19T09:04:29.847Z,14.35
2022-12-19T09:06:03.515Z,14.68
2022-12-19T09:06:31.360Z,15.43
2022-12-19T09:07:38.518Z,14.52
2022-12-19T09:08:49.166Z,14.55
2022-12-19T09:09:52.529Z,15.38
2022-12-19T09:10:58.824Z,14.43
2022-12-19T09:12:02.205Z,15.68
2022-12-19T09:13:06.934Z,13.88
2022-12-19T09:14:20.856Z,15.82
2022-12-19T09:15:25.144Z,15.55
2022-12-19T09:16:29.559Z,15.73
2022-12-19T09:17:34.086Z,16.40
2022-12-19T09:18:59.036Z,15.38
2022-12-19T09:20:02.438Z,15.25
2022-12-19T09:21:07.925Z,16.67
2022-12-19T09:22:12.038Z,15.02
2022-12-19T09:23:15.492Z,16.35
2022-12-19T09:24:25.957Z,16.88
2022-12-19T09:25:29.392Z,15.80
2022-12-19T09:26:33.740Z,16.40
2022-12-19T09:28:17.527Z,15.95
2022-12-19T09:29:03.703Z,14.68
2022-12-19T09:30:20.948Z,15.60
2022-12-19T09:31:26.124Z,14.00
2022-12-19T09:32:30.215Z,16.58
2022-12-19T09:33:41.180Z,16.00
2022-12-19T09:34:52.946Z,17.00
2022-12-19T09:35:57.299Z,16.40
2022-12-19T09:37:06.931Z,15.98
2022-12-19T09:38:10.428Z,18.15
2022-12-19T09:39:13.266Z,15.40
2022-12-19T09:40:24.997Z,16.00
2022-12-19T09:41:43.220Z,15.63
2022-12-19T09:43:02.695Z,16.35
2022-12-19T09:44:11.853Z,12.77
2022-12-19T09:45:31.608Z,16.33
2022-12-19T09:46:47.931Z,15.07
2022-12-19T09:48:05.696Z,15.27
2022-12-19T09:49:13.969Z,16.38
2022-12-19T09:50:24.919Z,15.10
2022-12-19T09:51:34.401Z,16.98
2022-12-19T09:52:45.958Z,15.98
2022-12-19T09:53:58.292Z,15.27
2022-12-19T09:55:04.899Z,16.42
2022-12-19T09:56:14.001Z,13.13
2022-12-19T09:57:19.914Z,14.23
2022-12-19T09:58:35.046Z,13.93
2022-12-19T09:59:49.430Z,12.80
2022-12-19T10:01:00.242Z,15.05
2022-12-19T10:02:06.928Z,15.60
2022-12-19T10:03:24.963Z,15.10
2022-12-19T10:04:30.345Z,14.98
2022-12-19T10:05:51.708Z,14.75
2022-12-19T10:07:20.545Z,15.65
2022-12-19T10:08:34.138Z,14.75
2022-12-19T10:12:35.345Z,14.43
2022-12-19T10:12:36.544Z,15.52
2022-12-19T10:12:50.947Z,13.07
2022-12-19T10:14:11.329Z,12.10
2022-12-19T10:15:21.208Z,12.15
2022-12-19T10:16:27.821Z,14.43
2022-12-19T10:17:36.409Z,14.45
2022-12-19T10:19:02.938Z,14.93
2022-12-19T10:20:24.939Z,14.95
2022-12-19T10:22:07.721Z,14.38
2022-12-19T10:23:03.040Z,12.77
2022-12-19T10:24:13.341Z,14.45
2022-12-19T10:25:38.020Z,14.40
2022-12-19T10:26:44.720Z,14.40
2022-12-19T10:27:58.726Z,14.98
2022-12-19T10:29:10.218Z,15.95
2022-12-19T10:30:16.318Z,15.27
2022-12-19T10:31:29.991Z,14.68
2022-12-19T10:32:45.083Z,16.10
2022-12-19T10:33:52.005Z,14.98
2022-12-19T10:34:55.931Z,13.93
2022-12-19T10:36:02.218Z,13.15
2022-12-19T10:37:24.473Z,16.38
2022-12-19T10:38:33.599Z,15.70
2022-12-19T10:39:44.835Z,13.77
2022-12-19T10:40:51.767Z,15.30
2022-12-19T10:41:58.014Z,15.07
2022-12-19T10:43:10.392Z,15.75
2022-12-19T10:44:15.932Z,15.63
2022-12-19T10:45:20.511Z,15.93
2022-12-19T10:46:38.084Z,15.13
2022-12-19T10:47:42.890Z,16.77
2022-12-19T10:48:53.027Z,15.75
2022-12-19T10:49:56.474Z,13.60
2022-12-19T10:51:03.552Z,16.50
2022-12-19T10:52:10.601Z,16.20
2022-12-19T10:53:15.072Z,15.73
2022-12-19T10:54:33.076Z,15.90
2022-12-19T10:55:42.774Z,15.25
2022-12-19T10:56:46.636Z,15.30
2022-12-19T10:57:49.824Z,15.35
2022-12-19T10:59:04.866Z,16.95
2022-12-19T11:00:16.527Z,15.50
2022-12-19T11:01:23.796Z,16.20
2022-12-19T11:02:42.596Z,15.25
2022-12-19T11:03:50.106Z,16.13
2022-12-19T11:05:01.134Z,15.07
2022-12-19T11:06:05.789Z,17.10
2022-12-19T11:07:20.073Z,16.35
2022-12-19T11:08:26.371Z,15.95
2022-12-19T11:09:30.940Z,16.05
2022-12-19T11:13:10.253Z,15.77
2022-12-19T11:15:41.520Z,15.23
2022-12-19T11:17:04.226Z,14.55
2022-12-19T11:20:41.054Z,14.27
2022-12-19T11:21:38.008Z,14.50
2022-12-19T11:25:51.544Z,16.13
2022-12-19T11:29:19.084Z,15.02
2022-12-19T11:29:27.450Z,14.50
2022-12-19T11:30:45.891Z,15.95
2022-12-19T11:30:47.266Z,14.63
2022-12-19T11:30:47.660Z,14.00
2022-12-19T11:30:48.177Z,13.23
2022-12-19T11:31:51.444Z,13.02
2022-12-19T11:32:40.359Z,15.40
2022-12-19T11:33:48.249Z,13.30
2022-12-19T11:34:52.461Z,15.93
2022-12-19T11:35:56.176Z,17.20
2022-12-19T11:37:02.713Z,14.35
2022-12-19T11:38:14.982Z,16.13
2022-12-19T11:39:21.009Z,17.77
2022-12-19T11:40:33.443Z,18.35
2022-12-19T11:41:41.500Z,18.27
2022-12-19T11:43:04.425Z,16.38
2022-12-19T11:44:22.946Z,17.73
2022-12-19T11:45:31.240Z,16.17
2022-12-19T11:46:38.965Z,16.60
2022-12-19T11:47:43.925Z,16.05
2022-12-19T11:48:54.989Z,14.65
2022-12-19T11:50:01.658Z,15.20
2022-12-19T11:51:13.944Z,15.90
2022-12-19T11:53:03.404Z,15.32
2022-12-19T11:53:50.134Z,16.20
2022-12-19T11:55:05.033Z,16.15
2022-12-19T11:56:17.032Z,16.45
2022-12-19T11:57:20.550Z,14.35
2022-12-19T11:58:23.785Z,15.75
2022-12-19T11:59:37.939Z,17.27
2022-12-19T12:00:42.897Z,16.98
2022-12-19T12:01:50.524Z,17.13
2022-12-19T12:03:02.360Z,17.30
2022-12-19T12:04:14.997Z,15.48
2022-12-19T12:05:31.981Z,15.10
2022-12-19T12:06:38.091Z,14.52
2022-12-19T12:09:42.329Z,15.48
2022-12-19T12:13:40.224Z,16.15
2022-12-19T12:14:24.955Z,16.25
2022-12-19T12:19:34.189Z,15.15
2022-12-19T12:24:15.932Z,15.60
2022-12-19T12:25:05.397Z,15.15
2022-12-19T12:30:30.024Z,15.52
2022-12-19T12:31:06.799Z,16.02
2022-12-19T12:31:28.857Z,14.35
2022-12-19T12:31:31.948Z,14.25
2022-12-19T12:31:32.468Z,15.95
2022-12-19T12:31:44.255Z,15.23
2022-12-19T12:31:52.359Z,14.05
2022-12-19T12:31:52.577Z,14.23
2022-12-19T12:32:05.788Z,15.38
2022-12-19T12:35:29.214Z,15.38
2022-12-19T12:35:33.639Z,15.55
2022-12-19T12:38:22.611Z,15.35
2022-12-19T12:39:33.607Z,15.18
2022-12-19T12:40:45.787Z,14.82
2022-12-19T12:42:07.806Z,15.02
2022-12-19T12:43:17.972Z,17.65
2022-12-19T12:44:32.754Z,15.20
2022-12-19T12:45:38.353Z,14.30
2022-12-19T12:46:43.102Z,15.95
2022-12-19T12:47:48.508Z,15.52
2022-12-19T12:48:53.579Z,16.60
2022-12-19T12:50:05.001Z,17.25
2022-12-19T12:51:09.052Z,15.70
2022-12-19T12:52:15.953Z,17.00
2022-12-19T12:53:23.191Z,17.27
2022-12-19T12:54:29.873Z,16.27
2022-12-19T12:55:41.969Z,15.70
2022-12-19T12:56:46.642Z,16.30
2022-12-19T12:57:56.948Z,16.35
2022-12-19T12:59:08.370Z,16.52
2022-12-19T13:00:19.622Z,14.80
2022-12-19T13:01:31.670Z,16.67
2022-12-19T13:02:42.032Z,17.13
2022-12-19T13:03:53.135Z,17.48
2022-12-19T13:04:58.426Z,18.08
2022-12-19T13:06:07.383Z,16.90
2022-12-19T13:07:26.003Z,17.40
2022-12-19T13:08:33.521Z,17.38
2022-12-19T13:09:37.772Z,18.88
2022-12-19T13:10:54.787Z,17.05
2022-12-19T13:12:25.990Z,15.88
2022-12-19T13:14:00.016Z,16.73
2022-12-19T13:15:20.144Z,18.48
2022-12-19T13:16:42.669Z,18.35
2022-12-19T13:18:04.621Z,17.05
2022-12-19T13:19:27.865Z,17.67
2022-12-19T13:20:59.980Z,17.13
2022-12-19T13:22:22.192Z,18.67
2022-12-19T13:23:35.036Z,17.17
2022-12-19T13:24:47.965Z,18.58
2022-12-19T13:25:53.878Z,17.63
2022-12-19T13:26:57.333Z,18.38
2022-12-19T13:28:15.118Z,18.55
2022-12-19T13:29:36.483Z,17.95
2022-12-19T13:31:21.341Z,18.20
2022-12-19T13:32:26.141Z,17.23
2022-12-19T13:33:46.311Z,14.82
2022-12-19T13:34:58.218Z,16.23
2022-12-19T13:39:50.928Z,17.98
2022-12-19T13:40:00.097Z,17.48
2022-12-19T13:40:11.070Z,16.55
2022-12-19T13:41:52.011Z,17.13
2022-12-19T13:43:31.440Z,17.38
2022-12-19T13:44:38.263Z,17.95
2022-12-19T13:45:48.026Z,18.05
2022-12-19T13:46:51.679Z,18.15
2022-12-19T13:47:55.771Z,20.08
2022-12-19T13:49:01.341Z,19.45
2022-12-19T13:50:12.970Z,17.88
2022-12-19T13:51:16.793Z,19.50
2022-12-19T13:52:27.085Z,19.63
2022-12-19T13:53:31.067Z,18.10
2022-12-19T13:54:38.713Z,20.08
2022-12-19T13:55:43.633Z,19.25
2022-12-19T13:56:47.112Z,19.83
2022-12-19T13:57:58.051Z,19.73
2022-12-19T13:59:02.904Z,19.77
2022-12-19T14:00:09.605Z,19.13
2022-12-19T14:01:22.256Z,18.90
2022-12-19T14:02:28.962Z,20.15
2022-12-19T14:03:43.002Z,19.17
2022-12-19T14:04:46.673Z,20.88
2022-12-19T14:06:17.478Z,19.30
2022-12-19T14:07:36.264Z,19.27
2022-12-19T14:08:47.024Z,19.50
2022-12-19T14:11:29.263Z,17.80
2022-12-19T14:11:29.369Z,20.80
2022-12-19T14:13:54.055Z,19.15
2022-12-19T14:15:13.361Z,17.95
2022-12-19T14:16:18.645Z,18.20
2022-12-19T14:17:23.013Z,17.95
2022-12-19T14:18:42.841Z,19.30
2022-12-19T14:20:12.187Z,19.55
2022-12-19T14:22:07.141Z,16.92
2022-12-19T14:22:50.718Z,20.75
2022-12-19T14:24:00.993Z,19.95
2022-12-19T14:28:15.674Z,20.02
2022-12-19T14:28:20.291Z,21.02
2022-12-19T14:28:26.982Z,20.33
2022-12-19T14:30:26.803Z,19.98
2022-12-19T14:31:04.010Z,20.67
2022-12-19T14:33:43.871Z,20.00
2022-12-19T14:34:04.133Z,20.88
2022-12-19T14:36:09.840Z,18.92
2022-12-19T14:37:00.963Z,19.05
2022-12-19T14:39:25.206Z,18.52
2022-12-19T14:39:39.008Z,22.27
2022-12-19T14:41:07.585Z,24.75
2022-12-19T14:43:30.271Z,22.95
2022-12-19T14:52:51.408Z,18.92
2022-12-19T14:53:51.900Z,20.15
2022-12-19T14:54:00.624Z,18.83
2022-12-19T14:54:01.163Z,19.05
2022-12-19T14:54:01.703Z,16.20
2022-12-19T14:54:41.629Z,20.92
2022-12-19T14:54:44.506Z,18.38
2022-12-19T14:58:51.001Z,22.55
2022-12-19T14:58:59.785Z,23.30
2022-12-19T15:00:03.327Z,31.08
2022-12-19T15:01:11.353Z,41.70
2022-12-19T15:02:28.175Z,30.00
2022-12-19T15:03:37.527Z,48.88
2022-12-19T15:04:50.608Z,33.85
2022-12-19T15:06:32.157Z,26.95
2022-12-19T15:07:36.981Z,22.85
2022-12-19T15:10:57.259Z,22.40
2022-12-19T15:11:05.181Z,23.42
2022-12-19T15:11:54.142Z,21.60
2022-12-19T15:14:47.194Z,21.63